createdAt,value
2017-09-27T00:00:49.840Z,88.09
2017-09-27T00:03:18.969Z,87.35
2017-09-27T00:05:48.841Z,87.35
2017-09-27T00:08:17.913Z,87.31
2017-09-27T00:10:46.972Z,87.67
2017-09-27T00:13:16.851Z,88.09
2017-09-27T00:15:45.941Z,88.48
2017-09-27T00:18:15.002Z,88.70
2017-09-27T00:20:44.082Z,88.94
2017-09-27T00:23:14.339Z,89.11
2017-09-27T00:25:43.431Z,89.19
2017-09-27T00:28:12.488Z,89.12
2017-09-27T00:30:42.334Z,89.00
2017-09-27T00:33:11.635Z,88.69
2017-09-27T00:35:41.509Z,88.77
2017-09-27T00:38:11.337Z,88.70
2017-09-27T00:40:40.395Z,88.51
2017-09-27T00:43:09.503Z,88.53
2017-09-27T00:45:38.580Z,88.55
2017-09-27T00:48:07.631Z,88.65
2017-09-27T00:50:36.693Z,88.71
2017-09-27T00:53:06.529Z,88.66
2017-09-27T00:55:35.610Z,88.70
2017-09-27T00:58:05.448Z,88.66
2017-09-27T01:00:34.520Z,88.87
2017-09-27T01:03:04.340Z,88.98
2017-09-27T01:05:33.419Z,88.95
2017-09-27T01:08:03.252Z,88.78
2017-09-27T01:10:32.318Z,88.74
2017-09-27T01:13:01.380Z,88.92
2017-09-27T01:15:30.436Z,89.09
2017-09-27T01:17:59.519Z,89.43
2017-09-27T01:20:29.364Z,89.59
2017-09-27T01:22:58.649Z,89.47
2017-09-27T01:25:27.821Z,89.23
2017-09-27T01:27:57.682Z,88.78
2017-09-27T01:30:26.731Z,88.75
2017-09-27T01:32:56.584Z,88.71
2017-09-27T01:35:25.723Z,88.95
2017-09-27T01:37:54.743Z,89.11
2017-09-27T01:40:24.604Z,89.05
2017-09-27T01:42:53.946Z,88.57
2017-09-27T01:45:23.010Z,88.48
2017-09-27T01:47:52.091Z,88.45
2017-09-27T01:50:21.191Z,88.57
2017-09-27T01:52:50.275Z,88.55
2017-09-27T01:55:19.397Z,88.42
2017-09-27T01:57:48.473Z,88.47
2017-09-27T02:00:17.520Z,88.76
2017-09-27T02:02:47.367Z,89.00
2017-09-27T02:05:16.456Z,89.17
2017-09-27T02:07:45.534Z,89.20
2017-09-27T02:10:15.404Z,89.27
2017-09-27T02:12:45.212Z,88.77
2017-09-27T02:15:14.300Z,88.76
2017-09-27T02:17:43.375Z,89.21
2017-09-27T02:20:12.480Z,89.06
2017-09-27T02:22:41.513Z,89.26
2017-09-27T02:25:10.605Z,89.19
2017-09-27T02:27:39.662Z,89.17
2017-09-27T02:30:08.780Z,88.96
2017-09-27T02:32:37.984Z,88.79
2017-09-27T02:35:07.070Z,88.78
2017-09-27T02:37:36.133Z,88.78
2017-09-27T02:40:05.187Z,88.78
2017-09-27T02:42:34.235Z,88.73
2017-09-27T02:45:03.293Z,88.48
2017-09-27T02:47:33.139Z,88.14
2017-09-27T02:50:02.212Z,88.27
2017-09-27T02:52:31.345Z,88.41
2017-09-27T02:55:00.398Z,88.54
2017-09-27T02:57:30.404Z,88.59
2017-09-27T02:59:59.465Z,88.63
2017-09-27T03:02:28.609Z,88.66
2017-09-27T03:04:58.443Z,88.63
2017-09-27T03:07:27.512Z,88.44
2017-09-27T03:09:57.370Z,88.50
2017-09-27T03:12:26.428Z,88.48
2017-09-27T03:14:56.261Z,88.41
2017-09-27T03:17:25.332Z,88.32
2017-09-27T03:19:55.205Z,88.32
2017-09-27T03:22:24.472Z,88.42
2017-09-27T03:24:53.532Z,88.82
2017-09-27T03:27:23.985Z,88.94
2017-09-27T03:29:53.198Z,88.97
2017-09-27T03:32:22.231Z,88.94
2017-09-27T03:34:51.284Z,88.96
2017-09-27T03:37:20.389Z,88.91
2017-09-27T03:39:49.481Z,88.85
2017-09-27T03:42:18.527Z,88.58
2017-09-27T03:44:47.593Z,88.61
2017-09-27T03:47:16.707Z,88.85
2017-09-27T03:49:46.583Z,88.98
2017-09-27T03:52:15.656Z,89.02
2017-09-27T03:54:44.779Z,89.04
2017-09-27T03:57:13.880Z,89.01
2017-09-27T03:59:42.935Z,88.94
2017-09-27T04:02:12.020Z,89.08
2017-09-27T04:04:41.845Z,89.07
2017-09-27T04:07:10.929Z,89.16
2017-09-27T04:09:40.757Z,89.25
2017-09-27T04:12:09.839Z,89.41
2017-09-27T04:14:39.691Z,89.37
2017-09-27T04:17:08.736Z,89.38
2017-09-27T04:19:37.815Z,89.23
2017-09-27T04:22:06.884Z,89.37
2017-09-27T04:24:35.999Z,89.53
2017-09-27T04:27:05.036Z,89.54
2017-09-27T04:29:34.093Z,89.43
2017-09-27T04:32:03.168Z,89.25
2017-09-27T04:34:32.248Z,89.16
2017-09-27T04:37:01.320Z,89.09
2017-09-27T04:39:30.379Z,89.07
2017-09-27T04:41:59.481Z,89.12
2017-09-27T04:44:28.551Z,89.15
2017-09-27T04:46:57.640Z,89.22
2017-09-27T04:49:26.700Z,89.33
2017-09-27T04:51:55.747Z,89.36
2017-09-27T04:54:24.821Z,89.41
2017-09-27T04:56:53.879Z,89.54
2017-09-27T04:59:23.687Z,89.54
2017-09-27T05:01:53.511Z,89.52
2017-09-27T05:04:22.591Z,89.58
2017-09-27T05:06:52.440Z,89.63
2017-09-27T05:09:21.507Z,89.58
2017-09-27T05:11:51.340Z,89.54
2017-09-27T05:14:20.403Z,89.52
2017-09-27T05:16:50.249Z,89.62
2017-09-27T05:19:19.331Z,89.65
2017-09-27T05:21:48.402Z,89.65
2017-09-27T05:24:17.482Z,89.65
2017-09-27T05:26:46.516Z,89.91
2017-09-27T05:29:15.614Z,90.09
2017-09-27T05:31:45.471Z,89.98
2017-09-27T05:34:14.642Z,90.17
2017-09-27T05:36:43.689Z,90.32
2017-09-27T05:39:12.756Z,90.21
2017-09-27T05:41:41.852Z,90.16
2017-09-27T05:44:10.900Z,90.49
2017-09-27T05:46:39.957Z,90.79
2017-09-27T05:49:09.076Z,90.98
2017-09-27T05:51:38.921Z,90.92
2017-09-27T05:54:07.999Z,90.75
2017-09-27T05:56:37.823Z,90.65
2017-09-27T05:59:06.921Z,90.80
2017-09-27T06:01:35.997Z,90.78
2017-09-27T06:04:05.849Z,90.87
2017-09-27T06:06:34.919Z,90.86
2017-09-27T06:09:03.980Z,90.87
2017-09-27T06:11:33.084Z,90.77
2017-09-27T06:14:02.908Z,91.04
2017-09-27T06:16:32.748Z,90.99
2017-09-27T06:19:01.801Z,90.63
2017-09-27T06:21:31.669Z,90.78
2017-09-27T06:24:00.737Z,90.82
2017-09-27T06:26:29.790Z,90.84
2017-09-27T06:28:58.868Z,90.80
2017-09-27T06:31:27.940Z,90.49
2017-09-27T06:33:57.016Z,89.99
2017-09-27T06:36:26.111Z,89.66
2017-09-27T06:38:55.941Z,89.44
2017-09-27T06:41:25.007Z,89.42
2017-09-27T06:43:54.861Z,89.57
2017-09-27T06:46:23.923Z,89.70
2017-09-27T06:48:53.734Z,89.71
2017-09-27T06:51:22.821Z,89.49
2017-09-27T06:53:52.656Z,89.42
2017-09-27T06:56:21.747Z,89.32
2017-09-27T06:58:50.843Z,89.26
2017-09-27T07:01:19.905Z,89.11
2017-09-27T07:03:48.991Z,88.93
2017-09-27T07:06:18.062Z,88.95
2017-09-27T07:08:47.126Z,88.80
2017-09-27T07:11:16.390Z,88.53
2017-09-27T07:13:45.460Z,87.95
2017-09-27T07:16:14.513Z,87.64
2017-09-27T07:18:43.612Z,88.11
2017-09-27T07:21:14.487Z,87.45
2017-09-27T07:23:44.336Z,87.34
2017-09-27T07:26:14.152Z,87.66
2017-09-27T07:28:44.004Z,87.24
2017-09-27T07:31:13.096Z,87.20
2017-09-27T07:33:42.157Z,86.78
2017-09-27T07:36:12.022Z,86.83
2017-09-27T07:38:41.165Z,87.09
2017-09-27T07:41:10.228Z,86.48
2017-09-27T07:43:39.297Z,87.15
2017-09-27T07:48:42.579Z,87.15
2017-09-27T07:51:12.410Z,86.80
2017-09-27T07:53:42.242Z,86.34
2017-09-27T07:56:11.333Z,86.66
2017-09-27T07:58:40.400Z,86.14
2017-09-27T08:01:10.222Z,86.27
2017-09-27T08:03:39.286Z,86.05
2017-09-27T08:06:08.352Z,85.79
2017-09-27T08:08:37.438Z,85.57
2017-09-27T08:11:06.509Z,85.07
2017-09-27T08:13:35.583Z,85.39
2017-09-27T08:16:05.412Z,85.01
2017-09-27T08:18:34.489Z,86.18
2017-09-27T08:21:04.363Z,83.38
2017-09-27T08:23:33.421Z,83.87
2017-09-27T08:26:02.500Z,85.29
2017-09-27T08:28:31.581Z,83.21
2017-09-27T08:31:00.677Z,82.46
2017-09-27T08:33:30.521Z,81.28
2017-09-27T08:36:00.369Z,81.15
2017-09-27T08:38:29.433Z,81.05
2017-09-27T08:40:58.712Z,82.25
2017-09-27T08:43:28.547Z,82.42
2017-09-27T08:45:57.611Z,81.83
2017-09-27T08:48:27.453Z,79.57
2017-09-27T08:50:56.512Z,77.83
2017-09-27T08:53:26.371Z,77.18
2017-09-27T08:55:55.472Z,78.85
2017-09-27T08:58:25.139Z,79.09
2017-09-27T09:00:55.032Z,79.70
2017-09-27T09:03:24.824Z,80.49
2017-09-27T09:05:53.928Z,79.90
2017-09-27T09:08:22.955Z,79.39
2017-09-27T09:10:53.093Z,79.14
2017-09-27T09:13:22.152Z,76.77
2017-09-27T09:15:51.238Z,79.45
2017-09-27T09:18:20.321Z,78.73
2017-09-27T09:20:49.393Z,79.90
2017-09-27T09:23:18.476Z,80.50
2017-09-27T09:25:47.534Z,80.03
2017-09-27T09:28:16.612Z,80.91
2017-09-27T09:30:45.674Z,79.80
2017-09-27T09:33:14.747Z,80.07
2017-09-27T09:35:44.584Z,80.10
2017-09-27T09:38:13.665Z,77.79
2017-09-27T09:40:42.734Z,77.90
2017-09-27T09:43:12.620Z,78.25
2017-09-27T09:45:41.701Z,77.87
2017-09-27T09:48:10.789Z,78.24
2017-09-27T09:50:39.898Z,77.87
2017-09-27T09:53:08.921Z,78.51
2017-09-27T09:55:38.014Z,78.81
2017-09-27T09:58:07.060Z,78.80
2017-09-27T10:00:36.155Z,77.70
2017-09-27T10:03:05.237Z,77.20
2017-09-27T10:05:35.052Z,76.79
2017-09-27T10:08:04.145Z,76.97
2017-09-27T10:10:33.198Z,76.55
2017-09-27T10:13:02.259Z,77.37
2017-09-27T10:15:31.332Z,78.92
2017-09-27T10:18:00.413Z,78.79
2017-09-27T10:20:29.522Z,77.76
2017-09-27T10:22:59.348Z,77.95
2017-09-27T10:25:28.440Z,78.02
2017-09-27T10:27:57.551Z,76.25
2017-09-27T10:30:26.589Z,75.66
2017-09-27T10:32:56.438Z,74.30
2017-09-27T10:35:25.501Z,74.94
2017-09-27T10:37:54.593Z,74.68
2017-09-27T10:40:24.459Z,73.51
2017-09-27T10:42:53.533Z,74.96
2017-09-27T10:45:22.633Z,74.78
2017-09-27T10:47:51.699Z,73.84
2017-09-27T10:50:21.513Z,73.70
2017-09-27T10:52:51.385Z,74.92
2017-09-27T10:55:20.440Z,73.97
2017-09-27T10:57:49.537Z,73.58
2017-09-27T11:00:18.603Z,72.04
2017-09-27T11:02:50.814Z,73.94
2017-09-27T11:05:20.907Z,70.78
2017-09-27T11:07:49.984Z,71.41
2017-09-27T11:10:19.844Z,71.74
2017-09-27T11:12:48.990Z,70.48
2017-09-27T11:15:18.081Z,70.26
2017-09-27T11:17:47.144Z,70.59
2017-09-27T11:20:16.227Z,68.52
2017-09-27T11:22:45.288Z,67.13
2017-09-27T11:25:14.410Z,69.38
2017-09-27T11:27:43.468Z,68.07
2017-09-27T11:30:13.306Z,67.47
2017-09-27T11:32:42.373Z,64.36
2017-09-27T11:35:12.198Z,67.39
2017-09-27T11:37:42.036Z,67.50
2017-09-27T11:40:11.140Z,69.95
2017-09-27T11:42:40.222Z,66.87
2017-09-27T11:45:09.326Z,65.65
2017-09-27T11:47:38.427Z,64.91
2017-09-27T11:50:07.479Z,66.45
2017-09-27T11:52:37.308Z,66.28
2017-09-27T11:55:06.415Z,61.53
2017-09-27T11:57:35.477Z,61.47
2017-09-27T12:00:05.296Z,65.84
2017-09-27T12:02:35.146Z,64.19
2017-09-27T12:05:04.502Z,65.14
2017-09-27T12:07:33.560Z,65.35
2017-09-27T12:10:02.640Z,64.37
2017-09-27T12:12:31.738Z,66.44
2017-09-27T12:15:00.821Z,62.08
2017-09-27T12:17:29.895Z,60.09
2017-09-27T12:19:59.777Z,61.38
2017-09-27T12:22:28.918Z,62.92
2017-09-27T12:24:58.720Z,61.75
2017-09-27T12:27:27.787Z,61.20
2017-09-27T12:29:56.876Z,62.31
2017-09-27T12:32:25.936Z,64.25
2017-09-27T12:34:55.024Z,63.22
2017-09-27T12:37:24.089Z,62.86
2017-09-27T12:39:54.299Z,62.75
2017-09-27T12:42:23.348Z,63.34
2017-09-27T12:44:52.433Z,64.49
2017-09-27T12:47:21.558Z,64.06
2017-09-27T12:49:50.623Z,63.91
2017-09-27T12:52:19.712Z,65.06
2017-09-27T12:54:48.870Z,64.76
2017-09-27T12:57:17.917Z,64.95
2017-09-27T12:59:47.026Z,66.46
2017-09-27T13:02:16.093Z,65.26
2017-09-27T13:04:45.185Z,65.18
2017-09-27T13:07:14.279Z,66.65
2017-09-27T13:09:43.376Z,66.91
2017-09-27T13:12:12.451Z,65.66
2017-09-27T13:14:42.269Z,65.97
2017-09-27T13:17:11.357Z,66.85
2017-09-27T13:19:41.209Z,66.98
2017-09-27T13:22:10.321Z,68.09
2017-09-27T13:24:39.409Z,69.24
2017-09-27T13:27:08.462Z,69.18
2017-09-27T13:29:37.556Z,70.49
2017-09-27T13:32:07.420Z,68.05
2017-09-27T13:34:36.518Z,69.14
2017-09-27T13:37:07.548Z,62.39
2017-09-27T13:39:36.629Z,63.57
2017-09-27T13:42:05.693Z,66.69
2017-09-27T13:44:35.552Z,65.62
2017-09-27T13:47:04.628Z,66.81
2017-09-27T13:49:33.732Z,66.60
2017-09-27T13:52:02.793Z,66.99
2017-09-27T13:54:32.624Z,66.48
2017-09-27T13:57:01.696Z,67.06
2017-09-27T13:59:31.537Z,65.89
2017-09-27T14:02:00.596Z,65.97
2017-09-27T14:04:30.429Z,67.69
2017-09-27T14:06:59.513Z,66.94
2017-09-27T14:09:29.411Z,69.17
2017-09-27T14:11:58.521Z,68.59
2017-09-27T14:14:28.505Z,68.28
2017-09-27T14:16:57.742Z,68.15
2017-09-27T14:19:27.563Z,67.07
2017-09-27T14:21:57.456Z,67.33
2017-09-27T14:24:26.532Z,66.80
2017-09-27T14:26:55.620Z,66.75
2017-09-27T14:29:24.676Z,66.41
2017-09-27T14:31:53.839Z,63.51
2017-09-27T14:34:22.902Z,63.42
2017-09-27T14:36:51.996Z,62.00
2017-09-27T14:39:21.045Z,62.97
2017-09-27T14:41:50.145Z,60.68
2017-09-27T14:44:20.203Z,59.29
2017-09-27T14:46:49.334Z,58.55
2017-09-27T14:49:19.197Z,57.61
2017-09-27T14:51:48.304Z,58.30
2017-09-27T14:54:17.363Z,59.54
2017-09-27T14:56:46.425Z,61.01
2017-09-27T14:59:15.486Z,63.09
2017-09-27T15:01:44.597Z,64.76
2017-09-27T15:04:13.698Z,65.41
2017-09-27T15:06:42.756Z,66.18
2017-09-27T15:09:11.839Z,66.75
2017-09-27T15:11:40.916Z,66.92
2017-09-27T15:14:10.022Z,67.47
2017-09-27T15:16:39.882Z,68.18
2017-09-27T15:19:09.005Z,68.94
2017-09-27T15:21:38.106Z,69.46
2017-09-27T15:24:07.953Z,69.83
2017-09-27T15:26:37.026Z,68.10
2017-09-27T15:29:06.124Z,67.49
2017-09-27T15:31:35.178Z,65.66
2017-09-27T15:34:04.564Z,63.91
2017-09-27T15:36:33.705Z,61.73
2017-09-27T15:39:02.774Z,62.04
2017-09-27T15:41:31.820Z,61.50
2017-09-27T15:44:00.905Z,60.97
2017-09-27T15:46:30.080Z,60.02
2017-09-27T15:48:59.205Z,60.91
2017-09-27T15:51:29.121Z,62.70
2017-09-27T15:53:58.177Z,63.84
2017-09-27T15:56:27.245Z,64.85
2017-09-27T15:58:56.337Z,65.90
2017-09-27T16:01:25.427Z,66.87
2017-09-27T16:03:54.499Z,67.85
2017-09-27T16:06:23.561Z,67.22
2017-09-27T16:08:53.559Z,68.06
2017-09-27T16:11:22.975Z,67.38
2017-09-27T16:13:52.072Z,67.72
2017-09-27T16:16:21.180Z,68.50
2017-09-27T16:18:50.236Z,69.06
2017-09-27T16:21:19.363Z,69.03
2017-09-27T16:23:48.451Z,68.73
2017-09-27T16:26:17.556Z,68.52
2017-09-27T16:28:46.945Z,68.49
2017-09-27T16:31:15.998Z,68.75
2017-09-27T16:33:45.178Z,68.11
2017-09-27T16:36:14.690Z,69.10
2017-09-27T16:38:44.106Z,67.63
2017-09-27T16:41:13.204Z,68.07
2017-09-27T16:43:42.256Z,67.58
2017-09-27T16:46:12.106Z,68.23
2017-09-27T16:48:41.171Z,68.01
2017-09-27T16:51:11.764Z,68.32
2017-09-27T16:53:40.831Z,69.03
2017-09-27T16:56:09.910Z,68.84
2017-09-27T16:58:38.987Z,69.29
2017-09-27T17:01:08.848Z,69.58
2017-09-27T17:03:37.913Z,69.44
2017-09-27T17:06:07.004Z,70.21
2017-09-27T17:08:36.110Z,70.69
2017-09-27T17:11:05.188Z,71.43
2017-09-27T17:13:34.280Z,71.35
2017-09-27T17:16:03.397Z,71.63
2017-09-27T17:18:32.476Z,71.67
2017-09-27T17:21:02.300Z,72.07
2017-09-27T17:23:31.386Z,71.92
2017-09-27T17:26:01.223Z,71.86
2017-09-27T17:28:30.304Z,72.05
2017-09-27T17:30:59.391Z,72.31
2017-09-27T17:33:28.466Z,71.41
2017-09-27T17:35:58.298Z,72.01
2017-09-27T17:38:27.418Z,73.11
2017-09-27T17:40:56.465Z,73.40
2017-09-27T17:43:26.329Z,73.81
2017-09-27T17:45:55.450Z,73.21
2017-09-27T17:48:24.521Z,73.87
2017-09-27T17:50:53.669Z,74.37
2017-09-27T17:53:22.770Z,75.30
2017-09-27T17:55:52.655Z,74.79
2017-09-27T17:58:21.737Z,74.53
2017-09-27T18:00:50.853Z,75.18
2017-09-27T18:03:19.948Z,74.94
2017-09-27T18:05:55.938Z,75.16
2017-09-27T18:11:47.493Z,75.28
2017-09-27T18:14:22.162Z,75.85
2017-09-27T18:19:52.072Z,76.33
2017-09-27T18:22:21.187Z,76.54
2017-09-27T18:24:50.325Z,77.16
2017-09-27T18:27:20.184Z,77.58
2017-09-27T18:29:49.329Z,77.77
2017-09-27T18:32:19.239Z,77.79
2017-09-27T18:34:48.326Z,77.75
2017-09-27T18:37:17.414Z,77.84
2017-09-27T18:39:46.476Z,78.04
2017-09-27T18:42:16.493Z,78.50
2017-09-27T18:44:45.577Z,78.71
2017-09-27T18:47:14.658Z,78.73
2017-09-27T18:49:43.737Z,78.81
2017-09-27T18:52:13.846Z,79.16
2017-09-27T18:54:42.932Z,79.81
2017-09-27T18:57:12.036Z,79.87
2017-09-27T18:59:41.138Z,79.88
2017-09-27T19:02:10.254Z,79.85
2017-09-27T19:04:40.084Z,79.98
2017-09-27T19:07:09.204Z,79.80
2017-09-27T19:09:38.350Z,79.94
2017-09-27T19:12:08.210Z,79.83
2017-09-27T19:14:37.284Z,79.71
2017-09-27T19:17:06.376Z,79.62
2017-09-27T19:19:36.065Z,79.96
2017-09-27T19:22:05.123Z,80.04
2017-09-27T19:24:34.745Z,80.15
2017-09-27T19:27:03.812Z,80.15
2017-09-27T19:29:32.888Z,80.08
2017-09-27T19:32:02.106Z,80.47
2017-09-27T19:34:31.176Z,80.52
2017-09-27T19:37:00.318Z,80.80
2017-09-27T19:39:29.415Z,80.83
2017-09-27T19:41:58.525Z,81.11
2017-09-27T19:44:27.698Z,81.31
2017-09-27T19:46:56.812Z,81.67
2017-09-27T19:49:26.282Z,81.49
2017-09-27T19:51:56.116Z,81.31
2017-09-27T19:54:25.640Z,81.48
2017-09-27T19:56:54.733Z,81.43
2017-09-27T19:59:23.814Z,81.75
2017-09-27T20:01:52.939Z,81.83
2017-09-27T20:04:22.788Z,82.04
2017-09-27T20:06:51.865Z,82.18
2017-09-27T20:09:20.946Z,82.31
2017-09-27T20:11:50.769Z,82.42
2017-09-27T20:14:19.852Z,82.44
2017-09-27T20:16:49.675Z,82.43
2017-09-27T20:19:18.768Z,82.57
2017-09-27T20:21:48.624Z,82.77
2017-09-27T20:24:17.691Z,82.72
2017-09-27T20:26:47.160Z,82.80
2017-09-27T20:29:16.536Z,82.97
2017-09-27T20:31:45.937Z,83.21
2017-09-27T20:34:15.390Z,83.17
2017-09-27T20:36:44.453Z,83.08
2017-09-27T20:39:13.522Z,83.18
2017-09-27T20:41:42.601Z,83.26
2017-09-27T20:44:11.684Z,83.22
2017-09-27T20:46:40.766Z,83.62
2017-09-27T20:49:09.881Z,83.86
2017-09-27T20:51:39.012Z,83.88
2017-09-27T20:54:08.074Z,83.45
2017-09-27T20:56:37.189Z,83.40
2017-09-27T20:59:06.261Z,83.31
2017-09-27T21:01:35.359Z,83.25
2017-09-27T21:04:04.537Z,83.09
2017-09-27T21:06:34.681Z,83.30
2017-09-27T21:09:03.783Z,83.53
2017-09-27T21:11:32.836Z,83.47
2017-09-27T21:14:02.912Z,83.28
2017-09-27T21:16:31.993Z,83.22
2017-09-27T21:19:01.037Z,83.23
2017-09-27T21:21:30.883Z,83.59
2017-09-27T21:23:59.965Z,83.99
2017-09-27T21:26:29.056Z,84.37
2017-09-27T21:28:58.901Z,84.45
2017-09-27T21:31:27.982Z,84.54
2017-09-27T21:33:57.043Z,84.62
2017-09-27T21:36:26.908Z,84.70
2017-09-27T21:38:55.994Z,85.15
2017-09-27T21:41:25.077Z,84.98
2017-09-27T21:43:54.252Z,85.16
2017-09-27T21:46:23.299Z,85.23
2017-09-27T21:48:52.376Z,85.45
2017-09-27T21:51:21.448Z,85.74
2017-09-27T21:53:51.264Z,86.59
2017-09-27T21:56:20.329Z,86.70
2017-09-27T21:58:49.431Z,86.79
2017-09-27T22:01:18.494Z,85.81
2017-09-27T22:03:47.563Z,85.53
2017-09-27T22:06:16.657Z,85.37
2017-09-27T22:08:45.874Z,85.60
2017-09-27T22:11:14.976Z,85.91
2017-09-27T22:13:44.376Z,86.04
2017-09-27T22:16:14.243Z,86.72
2017-09-27T22:18:44.125Z,87.27
2017-09-27T22:21:13.201Z,87.63
2017-09-27T22:23:42.326Z,87.71
2017-09-27T22:26:11.414Z,87.27
2017-09-27T22:28:40.484Z,86.91
2017-09-27T22:31:09.580Z,87.13
2017-09-27T22:33:38.653Z,87.18
2017-09-27T22:36:07.713Z,87.17
2017-09-27T22:38:36.792Z,87.25
2017-09-27T22:41:05.856Z,87.18
2017-09-27T22:43:34.949Z,87.26
2017-09-27T22:46:04.091Z,86.92
2017-09-27T22:48:33.121Z,86.97
2017-09-27T22:51:02.653Z,86.97
2017-09-27T22:53:31.714Z,86.91
2017-09-27T22:56:00.882Z,86.62
2017-09-27T22:58:29.948Z,86.70
2017-09-27T23:00:59.912Z,86.47
2017-09-27T23:03:29.751Z,86.27
2017-09-27T23:05:58.832Z,86.18
2017-09-27T23:08:27.903Z,86.16
2017-09-27T23:10:58.657Z,86.31
2017-09-27T23:13:27.734Z,86.38
2017-09-27T23:15:59.406Z,86.17
2017-09-27T23:18:29.524Z,86.32
2017-09-27T23:20:59.557Z,86.28
2017-09-27T23:23:28.616Z,86.29
2017-09-27T23:25:58.442Z,86.25
2017-09-27T23:28:28.281Z,86.01
2017-09-27T23:30:57.384Z,86.03
2017-09-27T23:33:26.464Z,86.06
2017-09-27T23:35:55.556Z,86.18
2017-09-27T23:38:24.672Z,86.36
2017-09-27T23:40:53.732Z,86.40
2017-09-27T23:43:23.573Z,86.20
2017-09-27T23:45:52.645Z,86.13
2017-09-27T23:48:22.477Z,86.12
2017-09-27T23:50:51.564Z,86.30
2017-09-27T23:53:20.645Z,86.00
2017-09-27T23:55:50.473Z,85.76
2017-09-27T23:58:19.561Z,85.80
